Terminal Aerodrome Forecast
Issued by NWS

Home | Current Version | Previous Version | Text Only | Print | Product List | Glossary On
Versions: 1 2 3 4 5 6 7 8 9 10 11 12 13 14 15 16
000
FTUS46 KMTR 021700
TAFSTS
TAF
KSTS 021734Z 0218/0318 35005KT P6SM BKN008 BKN020
     FM021830 29005KT P6SM SCT010 SCT050 BKN150
     FM022000 31006KT P6SM FEW012 SCT150
     FM022200 17007KT P6SM SKC
     FM031100 VRB03KT 1/4SM FG FEW001
     FM031600 32003KT P6SM SKC=

USA.gov is the U.S. government's official web portal to all federal, state and local government web resources and services.